sensor_id;sensor_type;location;lat;lon;timestamp;P1;durP1;ratioP1;P2;durP2;ratioP2
38425;SDS011;24210;51.460;6.148;2022-08-21T00:00:46;10.37;;;3.30;;
38425;SDS011;24210;51.460;6.148;2022-08-21T00:03:11;6.77;;;3.13;;
38425;SDS011;24210;51.460;6.148;2022-08-21T00:05:39;4.00;;;3.10;;
38425;SDS011;24210;51.460;6.148;2022-08-21T00:08:05;8.73;;;3.03;;
38425;SDS011;24210;51.460;6.148;2022-08-21T00:10:31;10.93;;;3.40;;
38425;SDS011;24210;51.460;6.148;2022-08-21T00:12:56;10.17;;;3.97;;
38425;SDS011;24210;51.460;6.148;2022-08-21T00:15:23;4.30;;;3.07;;
38425;SDS011;24210;51.460;6.148;2022-08-21T00:17:50;17.88;;;4.35;;
38425;SDS011;24210;51.460;6.148;2022-08-21T00:20:16;9.50;;;3.70;;
38425;SDS011;24210;51.460;6.148;2022-08-21T00:22:42;6.93;;;3.10;;
38425;SDS011;24210;51.460;6.148;2022-08-21T00:25:07;5.30;;;3.17;;
38425;SDS011;24210;51.460;6.148;2022-08-21T00:27:33;6.68;;;3.35;;
38425;SDS011;24210;51.460;6.148;2022-08-21T00:29:58;5.47;;;3.20;;
38425;SDS011;24210;51.460;6.148;2022-08-21T00:32:25;5.80;;;3.40;;
38425;SDS011;24210;51.460;6.148;2022-08-21T00:37:15;11.80;;;3.60;;
38425;SDS011;24210;51.460;6.148;2022-08-21T00:39:41;3.70;;;2.97;;
38425;SDS011;24210;51.460;6.148;2022-08-21T00:42:06;7.00;;;3.27;;
38425;SDS011;24210;51.460;6.148;2022-08-21T00:44:31;7.00;;;3.53;;
38425;SDS011;24210;51.460;6.148;2022-08-21T00:46:57;6.07;;;3.20;;
38425;SDS011;24210;51.460;6.148;2022-08-21T00:49:22;3.27;;;2.67;;
38425;SDS011;24210;51.460;6.148;2022-08-21T00:51:49;8.87;;;3.27;;
38425;SDS011;24210;51.460;6.148;2022-08-21T00:54:16;7.13;;;3.90;;
38425;SDS011;24210;51.460;6.148;2022-08-21T00:56:41;7.77;;;3.40;;
38425;SDS011;24210;51.460;6.148;2022-08-21T00:59:07;5.50;;;3.40;;
38425;SDS011;24210;51.460;6.148;2022-08-21T01:01:32;9.03;;;3.93;;
38425;SDS011;24210;51.460;6.148;2022-08-21T01:03:58;9.17;;;3.83;;
38425;SDS011;24210;51.460;6.148;2022-08-21T01:06:23;6.00;;;3.77;;
38425;SDS011;24210;51.460;6.148;2022-08-21T01:08:48;7.53;;;4.07;;
38425;SDS011;24210;51.460;6.148;2022-08-21T01:11:16;6.83;;;4.23;;
38425;SDS011;24210;51.460;6.148;2022-08-21T01:13:42;6.47;;;4.43;;
38425;SDS011;24210;51.460;6.148;2022-08-21T01:16:12;8.40;;;4.55;;
38425;SDS011;24210;51.460;6.148;2022-08-21T01:18:38;7.05;;;4.30;;
38425;SDS011;24210;51.460;6.148;2022-08-21T01:23:29;7.03;;;4.13;;
38425;SDS011;24210;51.460;6.148;2022-08-21T01:25:54;6.03;;;4.00;;
38425;SDS011;24210;51.460;6.148;2022-08-21T01:28:19;9.50;;;4.20;;
38425;SDS011;24210;51.460;6.148;2022-08-21T01:30:46;6.72;;;3.97;;
38425;SDS011;24210;51.460;6.148;2022-08-21T01:33:11;4.60;;;3.93;;
38425;SDS011;24210;51.460;6.148;2022-08-21T01:35:37;5.90;;;3.87;;
38425;SDS011;24210;51.460;6.148;2022-08-21T01:38:03;5.13;;;3.88;;
38425;SDS011;24210;51.460;6.148;2022-08-21T01:40:28;11.07;;;4.33;;
38425;SDS011;24210;51.460;6.148;2022-08-21T01:42:54;6.83;;;4.10;;
38425;SDS011;24210;51.460;6.148;2022-08-21T01:45:19;4.17;;;3.77;;
38425;SDS011;24210;51.460;6.148;2022-08-21T01:47:44;6.73;;;4.43;;
38425;SDS011;24210;51.460;6.148;2022-08-21T01:50:11;9.57;;;4.77;;
38425;SDS011;24210;51.460;6.148;2022-08-21T01:52:37;7.30;;;5.15;;
38425;SDS011;24210;51.460;6.148;2022-08-21T01:55:03;3.63;;;3.10;;
38425;SDS011;24210;51.460;6.148;2022-08-21T01:57:28;4.47;;;4.07;;
38425;SDS011;24210;51.460;6.148;2022-08-21T01:59:54;6.40;;;5.23;;
38425;SDS011;24210;51.460;6.148;2022-08-21T02:02:19;4.53;;;3.63;;
38425;SDS011;24210;51.460;6.148;2022-08-21T02:04:44;8.17;;;4.57;;
38425;SDS011;24210;51.460;6.148;2022-08-21T02:07:09;6.87;;;5.10;;
38425;SDS011;24210;51.460;6.148;2022-08-21T02:09:34;10.90;;;5.80;;
38425;SDS011;24210;51.460;6.148;2022-08-21T02:12:00;9.03;;;5.63;;
38425;SDS011;24210;51.460;6.148;2022-08-21T02:14:25;6.77;;;5.40;;
38425;SDS011;24210;51.460;6.148;2022-08-21T02:16:50;7.47;;;5.07;;
38425;SDS011;24210;51.460;6.148;2022-08-21T02:19:15;8.50;;;5.17;;
38425;SDS011;24210;51.460;6.148;2022-08-21T02:21:41;5.03;;;4.53;;
38425;SDS011;24210;51.460;6.148;2022-08-21T02:24:07;6.47;;;5.07;;
38425;SDS011;24210;51.460;6.148;2022-08-21T02:26:32;8.87;;;6.23;;
38425;SDS011;24210;51.460;6.148;2022-08-21T02:28:57;8.60;;;5.00;;
38425;SDS011;24210;51.460;6.148;2022-08-21T02:31:23;6.83;;;5.23;;
38425;SDS011;24210;51.460;6.148;2022-08-21T02:33:49;5.28;;;4.50;;
38425;SDS011;24210;51.460;6.148;2022-08-21T02:36:14;8.13;;;5.27;;
38425;SDS011;24210;51.460;6.148;2022-08-21T02:38:40;6.67;;;4.57;;
38425;SDS011;24210;51.460;6.148;2022-08-21T02:41:07;8.30;;;4.95;;
38425;SDS011;24210;51.460;6.148;2022-08-21T02:43:32;8.45;;;5.82;;
38425;SDS011;24210;51.460;6.148;2022-08-21T02:45:58;6.00;;;5.47;;
38425;SDS011;24210;51.460;6.148;2022-08-21T02:48:24;7.30;;;4.83;;
38425;SDS011;24210;51.460;6.148;2022-08-21T02:51:00;6.38;;;5.63;;
38425;SDS011;24210;51.460;6.148;2022-08-21T02:53:26;6.97;;;6.25;;
38425;SDS011;24210;51.460;6.148;2022-08-21T02:55:52;10.63;;;6.03;;
38425;SDS011;24210;51.460;6.148;2022-08-21T02:58:25;7.63;;;6.43;;
38425;SDS011;24210;51.460;6.148;2022-08-21T03:00:50;8.02;;;6.57;;
38425;SDS011;24210;51.460;6.148;2022-08-21T03:03:16;9.37;;;5.97;;
38425;SDS011;24210;51.460;6.148;2022-08-21T03:05:42;7.37;;;5.80;;
38425;SDS011;24210;51.460;6.148;2022-08-21T03:08:07;9.67;;;7.03;;
38425;SDS011;24210;51.460;6.148;2022-08-21T03:10:35;9.95;;;5.40;;
38425;SDS011;24210;51.460;6.148;2022-08-21T03:13:00;6.57;;;5.87;;
38425;SDS011;24210;51.460;6.148;2022-08-21T03:15:27;7.70;;;5.72;;
38425;SDS011;24210;51.460;6.148;2022-08-21T03:17:52;7.13;;;6.50;;
38425;SDS011;24210;51.460;6.148;2022-08-21T03:20:20;7.35;;;6.63;;
38425;SDS011;24210;51.460;6.148;2022-08-21T03:22:47;8.45;;;5.55;;
38425;SDS011;24210;51.460;6.148;2022-08-21T03:25:12;8.90;;;5.87;;
38425;SDS011;24210;51.460;6.148;2022-08-21T03:27:38;6.70;;;5.53;;
38425;SDS011;24210;51.460;6.148;2022-08-21T03:30:04;6.37;;;5.87;;
38425;SDS011;24210;51.460;6.148;2022-08-21T03:32:30;5.72;;;5.22;;
38425;SDS011;24210;51.460;6.148;2022-08-21T03:34:56;7.47;;;6.45;;
38425;SDS011;24210;51.460;6.148;2022-08-21T03:37:21;7.57;;;5.73;;
38425;SDS011;24210;51.460;6.148;2022-08-21T03:39:47;8.33;;;5.97;;
38425;SDS011;24210;51.460;6.148;2022-08-21T03:42:12;7.73;;;6.40;;
38425;SDS011;24210;51.460;6.148;2022-08-21T03:44:38;7.50;;;6.67;;
38425;SDS011;24210;51.460;6.148;2022-08-21T03:47:04;7.80;;;6.32;;
38425;SDS011;24210;51.460;6.148;2022-08-21T03:49:30;8.20;;;6.63;;
38425;SDS011;24210;51.460;6.148;2022-08-21T03:51:55;8.70;;;6.20;;
38425;SDS011;24210;51.460;6.148;2022-08-21T03:54:20;6.40;;;5.47;;
38425;SDS011;24210;51.460;6.148;2022-08-21T03:56:46;7.07;;;6.10;;
38425;SDS011;24210;51.460;6.148;2022-08-21T03:59:11;7.27;;;6.37;;
38425;SDS011;24210;51.460;6.148;2022-08-21T04:01:37;8.70;;;6.33;;
38425;SDS011;24210;51.460;6.148;2022-08-21T04:04:03;8.15;;;6.10;;
38425;SDS011;24210;51.460;6.148;2022-08-21T04:06:28;15.23;;;5.73;;
38425;SDS011;24210;51.460;6.148;2022-08-21T04:08:53;8.60;;;6.07;;
38425;SDS011;24210;51.460;6.148;2022-08-21T04:11:20;8.93;;;5.90;;
38425;SDS011;24210;51.460;6.148;2022-08-21T04:13:45;6.30;;;5.70;;
38425;SDS011;24210;51.460;6.148;2022-08-21T04:16:11;8.73;;;5.73;;
38425;SDS011;24210;51.460;6.148;2022-08-21T04:18:37;9.15;;;6.57;;
38425;SDS011;24210;51.460;6.148;2022-08-21T04:21:02;7.40;;;6.73;;
38425;SDS011;24210;51.460;6.148;2022-08-21T04:23:28;9.27;;;7.90;;
38425;SDS011;24210;51.460;6.148;2022-08-21T04:25:54;13.93;;;7.60;;
38425;SDS011;24210;51.460;6.148;2022-08-21T04:28:21;12.38;;;6.53;;
38425;SDS011;24210;51.460;6.148;2022-08-21T04:30:46;12.80;;;8.05;;
38425;SDS011;24210;51.460;6.148;2022-08-21T04:33:11;11.97;;;8.80;;
38425;SDS011;24210;51.460;6.148;2022-08-21T04:35:37;11.57;;;8.57;;
38425;SDS011;24210;51.460;6.148;2022-08-21T04:38:02;9.10;;;7.57;;
38425;SDS011;24210;51.460;6.148;2022-08-21T04:40:27;9.93;;;8.10;;
38425;SDS011;24210;51.460;6.148;2022-08-21T04:42:57;11.60;;;8.30;;
38425;SDS011;24210;51.460;6.148;2022-08-21T04:47:54;12.50;;;8.73;;
38425;SDS011;24210;51.460;6.148;2022-08-21T04:50:23;9.90;;;8.02;;
38425;SDS011;24210;51.460;6.148;2022-08-21T04:52:49;10.88;;;8.35;;
38425;SDS011;24210;51.460;6.148;2022-08-21T04:55:15;10.40;;;7.27;;
38425;SDS011;24210;51.460;6.148;2022-08-21T04:57:41;10.43;;;8.20;;
38425;SDS011;24210;51.460;6.148;2022-08-21T05:00:07;9.00;;;8.20;;
38425;SDS011;24210;51.460;6.148;2022-08-21T05:02:32;8.82;;;7.78;;
38425;SDS011;24210;51.460;6.148;2022-08-21T05:04:58;7.63;;;6.90;;
38425;SDS011;24210;51.460;6.148;2022-08-21T05:07:26;8.50;;;7.72;;
38425;SDS011;24210;51.460;6.148;2022-08-21T05:09:52;10.65;;;8.15;;
38425;SDS011;24210;51.460;6.148;2022-08-21T05:12:18;12.98;;;8.73;;
38425;SDS011;24210;51.460;6.148;2022-08-21T05:14:43;10.53;;;8.10;;
38425;SDS011;24210;51.460;6.148;2022-08-21T05:17:09;12.07;;;7.33;;
38425;SDS011;24210;51.460;6.148;2022-08-21T05:19:34;10.77;;;7.93;;
38425;SDS011;24210;51.460;6.148;2022-08-21T05:22:00;8.83;;;6.53;;
38425;SDS011;24210;51.460;6.148;2022-08-21T05:24:25;12.47;;;7.47;;
38425;SDS011;24210;51.460;6.148;2022-08-21T05:26:51;7.70;;;7.00;;
38425;SDS011;24210;51.460;6.148;2022-08-21T05:29:16;9.67;;;7.13;;
38425;SDS011;24210;51.460;6.148;2022-08-21T05:31:41;8.63;;;7.60;;
38425;SDS011;24210;51.460;6.148;2022-08-21T05:34:07;14.20;;;7.70;;
38425;SDS011;24210;51.460;6.148;2022-08-21T05:36:33;15.40;;;6.72;;
38425;SDS011;24210;51.460;6.148;2022-08-21T05:38:58;9.17;;;6.77;;
38425;SDS011;24210;51.460;6.148;2022-08-21T05:41:23;10.37;;;7.37;;
38425;SDS011;24210;51.460;6.148;2022-08-21T05:43:49;11.47;;;7.23;;
38425;SDS011;24210;51.460;6.148;2022-08-21T05:46:14;10.03;;;6.93;;
38425;SDS011;24210;51.460;6.148;2022-08-21T05:48:39;12.77;;;7.60;;
38425;SDS011;24210;51.460;6.148;2022-08-21T05:51:06;16.27;;;7.53;;
38425;SDS011;24210;51.460;6.148;2022-08-21T05:53:31;9.15;;;6.45;;
38425;SDS011;24210;51.460;6.148;2022-08-21T05:55:57;8.37;;;5.77;;
38425;SDS011;24210;51.460;6.148;2022-08-21T05:58:22;9.00;;;7.63;;
38425;SDS011;24210;51.460;6.148;2022-08-21T06:00:49;12.00;;;6.38;;
38425;SDS011;24210;51.460;6.148;2022-08-21T06:03:16;7.68;;;5.90;;
38425;SDS011;24210;51.460;6.148;2022-08-21T06:05:42;10.52;;;5.95;;
38425;SDS011;24210;51.460;6.148;2022-08-21T06:08:07;9.50;;;6.23;;
38425;SDS011;24210;51.460;6.148;2022-08-21T06:10:33;13.50;;;5.93;;
38425;SDS011;24210;51.460;6.148;2022-08-21T06:12:58;10.00;;;5.23;;
38425;SDS011;24210;51.460;6.148;2022-08-21T06:15:23;7.83;;;5.60;;
38425;SDS011;24210;51.460;6.148;2022-08-21T06:17:48;8.20;;;4.43;;
38425;SDS011;24210;51.460;6.148;2022-08-21T06:20:14;13.80;;;5.57;;
38425;SDS011;24210;51.460;6.148;2022-08-21T06:22:39;7.70;;;3.77;;
38425;SDS011;24210;51.460;6.148;2022-08-21T06:25:04;8.27;;;4.73;;
38425;SDS011;24210;51.460;6.148;2022-08-21T06:27:30;6.83;;;3.30;;
38425;SDS011;24210;51.460;6.148;2022-08-21T06:29:55;8.33;;;4.83;;
38425;SDS011;24210;51.460;6.148;2022-08-21T06:32:22;7.78;;;3.72;;
38425;SDS011;24210;51.460;6.148;2022-08-21T06:34:47;8.77;;;4.07;;
38425;SDS011;24210;51.460;6.148;2022-08-21T06:37:12;6.20;;;2.97;;
38425;SDS011;24210;51.460;6.148;2022-08-21T06:39:37;6.30;;;2.83;;
38425;SDS011;24210;51.460;6.148;2022-08-21T06:42:03;8.67;;;2.93;;
38425;SDS011;24210;51.460;6.148;2022-08-21T06:44:29;8.73;;;3.57;;
38425;SDS011;24210;51.460;6.148;2022-08-21T06:46:54;9.20;;;3.57;;
38425;SDS011;24210;51.460;6.148;2022-08-21T06:49:19;3.07;;;2.77;;
38425;SDS011;24210;51.460;6.148;2022-08-21T06:51:44;8.87;;;3.70;;
38425;SDS011;24210;51.460;6.148;2022-08-21T06:54:10;5.33;;;2.50;;
38425;SDS011;24210;51.460;6.148;2022-08-21T06:56:35;9.97;;;3.80;;
38425;SDS011;24210;51.460;6.148;2022-08-21T06:59:03;8.55;;;2.58;;
38425;SDS011;24210;51.460;6.148;2022-08-21T07:01:28;13.83;;;3.97;;
38425;SDS011;24210;51.460;6.148;2022-08-21T07:03:53;6.07;;;2.70;;
38425;SDS011;24210;51.460;6.148;2022-08-21T07:06:18;10.70;;;3.57;;
38425;SDS011;24210;51.460;6.148;2022-08-21T07:08:44;10.90;;;3.73;;
38425;SDS011;24210;51.460;6.148;2022-08-21T07:11:27;9.27;;;2.40;;
38425;SDS011;24210;51.460;6.148;2022-08-21T07:13:52;5.72;;;1.33;;
38425;SDS011;24210;51.460;6.148;2022-08-21T07:16:19;7.82;;;1.73;;
38425;SDS011;24210;51.460;6.148;2022-08-21T07:18:45;5.55;;;2.58;;
38425;SDS011;24210;51.460;6.148;2022-08-21T07:21:10;9.73;;;3.17;;
38425;SDS011;24210;51.460;6.148;2022-08-21T07:23:40;6.73;;;2.30;;
38425;SDS011;24210;51.460;6.148;2022-08-21T07:26:06;8.25;;;2.78;;
38425;SDS011;24210;51.460;6.148;2022-08-21T07:28:31;5.67;;;2.53;;
38425;SDS011;24210;51.460;6.148;2022-08-21T07:30:58;4.50;;;2.17;;
38425;SDS011;24210;51.460;6.148;2022-08-21T07:33:24;6.95;;;2.95;;
38425;SDS011;24210;51.460;6.148;2022-08-21T07:35:49;10.27;;;3.35;;
38425;SDS011;24210;51.460;6.148;2022-08-21T07:38:15;4.00;;;2.63;;
38425;SDS011;24210;51.460;6.148;2022-08-21T07:40:40;2.40;;;1.17;;
38425;SDS011;24210;51.460;6.148;2022-08-21T07:43:05;9.43;;;2.90;;
38425;SDS011;24210;51.460;6.148;2022-08-21T07:45:31;3.37;;;1.87;;
38425;SDS011;24210;51.460;6.148;2022-08-21T07:47:56;7.33;;;3.33;;
38425;SDS011;24210;51.460;6.148;2022-08-21T07:50:21;6.90;;;2.10;;
38425;SDS011;24210;51.460;6.148;2022-08-21T07:52:46;6.87;;;3.50;;
38425;SDS011;24210;51.460;6.148;2022-08-21T07:55:13;6.60;;;3.60;;
38425;SDS011;24210;51.460;6.148;2022-08-21T07:57:39;3.72;;;2.47;;
38425;SDS011;24210;51.460;6.148;2022-08-21T08:00:06;10.73;;;3.53;;
38425;SDS011;24210;51.460;6.148;2022-08-21T08:02:31;7.68;;;3.38;;
38425;SDS011;24210;51.460;6.148;2022-08-21T08:05:00;10.43;;;3.63;;
38425;SDS011;24210;51.460;6.148;2022-08-21T08:07:26;5.45;;;2.47;;
38425;SDS011;24210;51.460;6.148;2022-08-21T08:09:51;6.57;;;3.70;;
38425;SDS011;24210;51.460;6.148;2022-08-21T08:12:16;13.70;;;4.23;;
38425;SDS011;24210;51.460;6.148;2022-08-21T08:14:43;3.75;;;1.65;;
38425;SDS011;24210;51.460;6.148;2022-08-21T08:17:08;8.90;;;4.33;;
38425;SDS011;24210;51.460;6.148;2022-08-21T08:19:33;8.13;;;2.00;;
38425;SDS011;24210;51.460;6.148;2022-08-21T08:21:58;9.10;;;4.23;;
38425;SDS011;24210;51.460;6.148;2022-08-21T08:24:24;8.50;;;3.60;;
38425;SDS011;24210;51.460;6.148;2022-08-21T08:26:49;10.20;;;4.17;;
38425;SDS011;24210;51.460;6.148;2022-08-21T08:29:14;13.33;;;3.60;;
38425;SDS011;24210;51.460;6.148;2022-08-21T08:31:39;9.20;;;4.43;;
38425;SDS011;24210;51.460;6.148;2022-08-21T08:34:05;9.80;;;4.50;;
38425;SDS011;24210;51.460;6.148;2022-08-21T08:36:33;10.60;;;5.00;;
38425;SDS011;24210;51.460;6.148;2022-08-21T08:38:59;11.15;;;4.22;;
38425;SDS011;24210;51.460;6.148;2022-08-21T08:41:26;7.28;;;3.00;;
38425;SDS011;24210;51.460;6.148;2022-08-21T08:43:52;8.02;;;4.60;;
38425;SDS011;24210;51.460;6.148;2022-08-21T08:46:19;12.40;;;4.22;;
38425;SDS011;24210;51.460;6.148;2022-08-21T08:48:48;12.43;;;3.78;;
38425;SDS011;24210;51.460;6.148;2022-08-21T08:51:18;6.43;;;2.05;;
38425;SDS011;24210;51.460;6.148;2022-08-21T08:54:05;7.35;;;2.47;;
38425;SDS011;24210;51.460;6.148;2022-08-21T08:56:33;8.25;;;2.58;;
38425;SDS011;24210;51.460;6.148;2022-08-21T08:59:13;11.95;;;2.25;;
38425;SDS011;24210;51.460;6.148;2022-08-21T09:01:39;4.85;;;1.90;;
38425;SDS011;24210;51.460;6.148;2022-08-21T09:04:05;9.50;;;1.43;;
38425;SDS011;24210;51.460;6.148;2022-08-21T09:06:37;10.57;;;2.10;;
38425;SDS011;24210;51.460;6.148;2022-08-21T09:09:11;14.13;;;2.75;;
38425;SDS011;24210;51.460;6.148;2022-08-21T09:14:17;5.37;;;1.60;;
38425;SDS011;24210;51.460;6.148;2022-08-21T09:16:51;5.53;;;1.92;;
38425;SDS011;24210;51.460;6.148;2022-08-21T09:19:27;8.88;;;2.80;;
38425;SDS011;24210;51.460;6.148;2022-08-21T09:24:32;9.85;;;1.85;;
38425;SDS011;24210;51.460;6.148;2022-08-21T09:27:08;4.50;;;1.23;;
38425;SDS011;24210;51.460;6.148;2022-08-21T09:29:35;5.10;;;1.30;;
38425;SDS011;24210;51.460;6.148;2022-08-21T09:34:27;7.00;;;1.77;;
38425;SDS011;24210;51.460;6.148;2022-08-21T09:36:52;6.85;;;2.35;;
38425;SDS011;24210;51.460;6.148;2022-08-21T09:39:26;6.97;;;2.50;;
38425;SDS011;24210;51.460;6.148;2022-08-21T09:41:59;8.23;;;1.67;;
38425;SDS011;24210;51.460;6.148;2022-08-21T09:44:25;8.18;;;2.25;;
38425;SDS011;24210;51.460;6.148;2022-08-21T09:46:51;5.55;;;2.03;;
38425;SDS011;24210;51.460;6.148;2022-08-21T09:49:26;5.25;;;1.65;;
38425;SDS011;24210;51.460;6.148;2022-08-21T09:51:51;6.78;;;2.00;;
38425;SDS011;24210;51.460;6.148;2022-08-21T09:54:19;7.50;;;2.10;;
38425;SDS011;24210;51.460;6.148;2022-08-21T09:59:36;6.20;;;1.55;;
38425;SDS011;24210;51.460;6.148;2022-08-21T10:04:43;8.05;;;1.20;;
38425;SDS011;24210;51.460;6.148;2022-08-21T10:07:14;5.45;;;1.63;;
38425;SDS011;24210;51.460;6.148;2022-08-21T10:09:40;5.20;;;1.30;;
38425;SDS011;24210;51.460;6.148;2022-08-21T10:16:59;8.03;;;1.80;;
38425;SDS011;24210;51.460;6.148;2022-08-21T10:26:48;4.73;;;1.23;;
38425;SDS011;24210;51.460;6.148;2022-08-21T10:29:24;4.47;;;1.00;;
38425;SDS011;24210;51.460;6.148;2022-08-21T10:54:50;5.20;;;2.13;;
38425;SDS011;24210;51.460;6.148;2022-08-21T11:00:03;3.25;;;0.98;;
38425;SDS011;24210;51.460;6.148;2022-08-21T11:02:33;3.67;;;0.77;;
38425;SDS011;24210;51.460;6.148;2022-08-21T11:10:25;4.57;;;0.82;;
38425;SDS011;24210;51.460;6.148;2022-08-21T11:13:03;3.47;;;0.80;;
38425;SDS011;24210;51.460;6.148;2022-08-21T11:20:50;3.97;;;1.10;;
38425;SDS011;24210;51.460;6.148;2022-08-21T11:26:05;8.48;;;1.88;;
38425;SDS011;24210;51.460;6.148;2022-08-21T11:28:51;2.67;;;0.93;;
38425;SDS011;24210;51.460;6.148;2022-08-21T11:31:30;1.30;;;0.40;;
38425;SDS011;24210;51.460;6.148;2022-08-21T11:43:59;7.03;;;1.48;;
38425;SDS011;24210;51.460;6.148;2022-08-21T11:49:20;6.25;;;1.58;;
38425;SDS011;24210;51.460;6.148;2022-08-21T11:51:51;3.10;;;0.43;;
38425;SDS011;24210;51.460;6.148;2022-08-21T11:56:48;6.80;;;1.67;;
38425;SDS011;24210;51.460;6.148;2022-08-21T11:59:17;9.52;;;1.20;;
38425;SDS011;24210;51.460;6.148;2022-08-21T12:01:46;2.90;;;0.60;;
38425;SDS011;24210;51.460;6.148;2022-08-21T12:04:18;4.82;;;0.82;;
38425;SDS011;24210;51.460;6.148;2022-08-21T12:06:46;6.43;;;0.98;;
38425;SDS011;24210;51.460;6.148;2022-08-21T12:11:50;3.13;;;0.73;;
38425;SDS011;24210;51.460;6.148;2022-08-21T12:14:17;6.93;;;1.70;;
38425;SDS011;24210;51.460;6.148;2022-08-21T12:16:44;5.57;;;0.98;;
38425;SDS011;24210;51.460;6.148;2022-08-21T12:19:11;4.53;;;0.90;;
38425;SDS011;24210;51.460;6.148;2022-08-21T12:24:19;4.22;;;0.88;;
38425;SDS011;24210;51.460;6.148;2022-08-21T12:26:56;2.28;;;0.85;;
38425;SDS011;24210;51.460;6.148;2022-08-21T12:29:23;2.88;;;0.47;;
38425;SDS011;24210;51.460;6.148;2022-08-21T12:31:52;5.28;;;1.00;;
38425;SDS011;24210;51.460;6.148;2022-08-21T12:34:17;5.30;;;1.52;;
38425;SDS011;24210;51.460;6.148;2022-08-21T12:36:46;2.20;;;0.57;;
38425;SDS011;24210;51.460;6.148;2022-08-21T12:39:15;2.65;;;0.60;;
38425;SDS011;24210;51.460;6.148;2022-08-21T12:44:13;3.78;;;0.70;;
38425;SDS011;24210;51.460;6.148;2022-08-21T12:49:08;2.87;;;0.73;;
38425;SDS011;24210;51.460;6.148;2022-08-21T12:51:49;4.43;;;1.33;;
38425;SDS011;24210;51.460;6.148;2022-08-21T12:54:29;4.93;;;0.70;;
38425;SDS011;24210;51.460;6.148;2022-08-21T12:56:59;5.90;;;1.05;;
38425;SDS011;24210;51.460;6.148;2022-08-21T12:59:24;2.67;;;0.57;;
38425;SDS011;24210;51.460;6.148;2022-08-21T13:01:50;3.13;;;0.50;;
38425;SDS011;24210;51.460;6.148;2022-08-21T13:04:18;7.85;;;1.38;;
38425;SDS011;24210;51.460;6.148;2022-08-21T13:06:51;1.77;;;0.70;;
38425;SDS011;24210;51.460;6.148;2022-08-21T13:09:18;3.28;;;1.00;;
38425;SDS011;24210;51.460;6.148;2022-08-21T13:11:45;1.98;;;0.40;;
38425;SDS011;24210;51.460;6.148;2022-08-21T13:14:55;6.65;;;0.73;;
38425;SDS011;24210;51.460;6.148;2022-08-21T13:17:00;6.10;;;0.73;;
38425;SDS011;24210;51.460;6.148;2022-08-21T13:19:27;1.33;;;0.43;;
38425;SDS011;24210;51.460;6.148;2022-08-21T13:24:20;10.52;;;3.90;;
38425;SDS011;24210;51.460;6.148;2022-08-21T13:26:46;3.25;;;0.50;;
38425;SDS011;24210;51.460;6.148;2022-08-21T13:29:13;2.88;;;0.82;;
38425;SDS011;24210;51.460;6.148;2022-08-21T13:31:40;6.25;;;1.00;;
38425;SDS011;24210;51.460;6.148;2022-08-21T13:34:07;3.83;;;1.15;;
38425;SDS011;24210;51.460;6.148;2022-08-21T13:36:37;4.82;;;0.90;;
38425;SDS011;24210;51.460;6.148;2022-08-21T13:39:07;4.15;;;0.60;;
38425;SDS011;24210;51.460;6.148;2022-08-21T13:41:33;0.75;;;0.40;;
38425;SDS011;24210;51.460;6.148;2022-08-21T13:44:04;4.25;;;0.73;;
38425;SDS011;24210;51.460;6.148;2022-08-21T13:46:33;3.95;;;0.95;;
38425;SDS011;24210;51.460;6.148;2022-08-21T13:48:59;3.50;;;1.20;;
38425;SDS011;24210;51.460;6.148;2022-08-21T13:51:25;2.72;;;0.90;;
38425;SDS011;24210;51.460;6.148;2022-08-21T13:53:51;1.33;;;0.63;;
38425;SDS011;24210;51.460;6.148;2022-08-21T13:56:33;2.55;;;0.52;;
38425;SDS011;24210;51.460;6.148;2022-08-21T13:59:06;4.32;;;0.93;;
38425;SDS011;24210;51.460;6.148;2022-08-21T14:01:38;3.53;;;0.77;;
38425;SDS011;24210;51.460;6.148;2022-08-21T14:06:42;4.55;;;0.70;;
38425;SDS011;24210;51.460;6.148;2022-08-21T14:09:09;4.07;;;1.10;;
38425;SDS011;24210;51.460;6.148;2022-08-21T14:11:35;5.97;;;1.20;;
38425;SDS011;24210;51.460;6.148;2022-08-21T14:14:46;3.53;;;0.70;;
38425;SDS011;24210;51.460;6.148;2022-08-21T14:16:52;5.35;;;1.92;;
38425;SDS011;24210;51.460;6.148;2022-08-21T14:19:22;4.97;;;1.25;;
38425;SDS011;24210;51.460;6.148;2022-08-21T14:21:47;3.67;;;1.05;;
38425;SDS011;24210;51.460;6.148;2022-08-21T14:24:24;3.50;;;0.77;;
38425;SDS011;24210;51.460;6.148;2022-08-21T14:26:50;2.95;;;0.90;;
38425;SDS011;24210;51.460;6.148;2022-08-21T14:29:17;4.97;;;0.90;;
38425;SDS011;24210;51.460;6.148;2022-08-21T14:31:43;3.33;;;1.02;;
38425;SDS011;24210;51.460;6.148;2022-08-21T14:34:13;4.25;;;1.02;;
38425;SDS011;24210;51.460;6.148;2022-08-21T14:36:38;3.53;;;0.93;;
38425;SDS011;24210;51.460;6.148;2022-08-21T14:39:03;2.10;;;0.83;;
38425;SDS011;24210;51.460;6.148;2022-08-21T14:41:29;3.65;;;0.70;;
38425;SDS011;24210;51.460;6.148;2022-08-21T14:43:55;5.07;;;1.13;;
38425;SDS011;24210;51.460;6.148;2022-08-21T14:46:23;4.03;;;1.40;;
38425;SDS011;24210;51.460;6.148;2022-08-21T14:48:48;2.35;;;0.80;;
38425;SDS011;24210;51.460;6.148;2022-08-21T14:51:14;4.47;;;1.23;;
38425;SDS011;24210;51.460;6.148;2022-08-21T14:53:39;4.00;;;1.13;;
38425;SDS011;24210;51.460;6.148;2022-08-21T14:56:04;5.57;;;1.10;;
38425;SDS011;24210;51.460;6.148;2022-08-21T14:58:30;3.53;;;0.90;;
38425;SDS011;24210;51.460;6.148;2022-08-21T15:00:55;2.07;;;0.97;;
38425;SDS011;24210;51.460;6.148;2022-08-21T15:03:22;4.95;;;1.27;;
38425;SDS011;24210;51.460;6.148;2022-08-21T15:05:48;3.20;;;0.70;;
38425;SDS011;24210;51.460;6.148;2022-08-21T15:08:13;7.27;;;1.00;;
38425;SDS011;24210;51.460;6.148;2022-08-21T15:10:38;3.03;;;0.90;;
38425;SDS011;24210;51.460;6.148;2022-08-21T15:13:05;4.15;;;1.48;;
38425;SDS011;24210;51.460;6.148;2022-08-21T15:15:32;4.18;;;0.93;;
38425;SDS011;24210;51.460;6.148;2022-08-21T15:17:58;5.70;;;1.00;;
38425;SDS011;24210;51.460;6.148;2022-08-21T15:20:24;4.17;;;1.07;;
38425;SDS011;24210;51.460;6.148;2022-08-21T15:22:49;10.00;;;2.10;;
38425;SDS011;24210;51.460;6.148;2022-08-21T15:25:14;3.00;;;1.30;;
38425;SDS011;24210;51.460;6.148;2022-08-21T15:27:39;4.37;;;1.20;;
38425;SDS011;24210;51.460;6.148;2022-08-21T15:30:05;3.17;;;1.20;;
38425;SDS011;24210;51.460;6.148;2022-08-21T15:40:56;4.78;;;1.60;;
38425;SDS011;24210;51.460;6.148;2022-08-21T15:43:26;5.23;;;1.37;;
38425;SDS011;24210;51.460;6.148;2022-08-21T15:45:52;3.65;;;1.30;;
38425;SDS011;24210;51.460;6.148;2022-08-21T15:48:18;2.77;;;1.30;;
38425;SDS011;24210;51.460;6.148;2022-08-21T15:50:43;4.10;;;1.27;;
38425;SDS011;24210;51.460;6.148;2022-08-21T15:53:09;4.80;;;2.00;;
38425;SDS011;24210;51.460;6.148;2022-08-21T15:55:34;5.70;;;1.77;;
38425;SDS011;24210;51.460;6.148;2022-08-21T15:57:59;6.50;;;1.30;;
38425;SDS011;24210;51.460;6.148;2022-08-21T16:00:25;4.57;;;1.40;;
38425;SDS011;24210;51.460;6.148;2022-08-21T16:02:53;3.30;;;1.03;;
38425;SDS011;24210;51.460;6.148;2022-08-21T16:05:19;4.80;;;1.60;;
38425;SDS011;24210;51.460;6.148;2022-08-21T16:07:45;6.00;;;1.65;;
38425;SDS011;24210;51.460;6.148;2022-08-21T16:10:10;2.38;;;1.30;;
38425;SDS011;24210;51.460;6.148;2022-08-21T16:12:38;5.15;;;1.88;;
38425;SDS011;24210;51.460;6.148;2022-08-21T16:15:05;6.43;;;2.00;;
38425;SDS011;24210;51.460;6.148;2022-08-21T16:17:32;5.28;;;1.85;;
38425;SDS011;24210;51.460;6.148;2022-08-21T16:19:58;5.40;;;1.60;;
38425;SDS011;24210;51.460;6.148;2022-08-21T16:22:24;6.85;;;1.80;;
38425;SDS011;24210;51.460;6.148;2022-08-21T16:24:50;4.20;;;1.80;;
38425;SDS011;24210;51.460;6.148;2022-08-21T16:27:15;6.70;;;2.40;;
38425;SDS011;24210;51.460;6.148;2022-08-21T16:29:42;5.68;;;2.35;;
38425;SDS011;24210;51.460;6.148;2022-08-21T16:32:07;3.60;;;2.27;;
38425;SDS011;24210;51.460;6.148;2022-08-21T16:34:33;8.63;;;1.90;;